Time;durP1;ratioP1;P1;durP2;ratioP2;P2;SDS_P1;SDS_P2;PMS_P1;PMS_P2;Temp;Humidity;BMP_temperature;BMP_pressure;BME280_temperature;BME280_humidity;BME280_pressure;Samples;Min_cycle;Max_cycle;Signal;HPM_P1;HPM_P2
2022/01/24 00:01:06;;;;;;;12.17;8.07;;;;;;;-4.76;70.47;95532.59;5139531;27;20219;-62
2022/01/24 00:03:33;;;;;;;11.70;9.00;;;;;;;-4.62;70.00;95537.28;5140145;27;20202;-64
2022/01/24 00:05:58;;;;;;;10.50;8.67;;;;;;;-4.70;70.36;95524.72;5138567;27;20233;-64
2022/01/24 00:08:24;;;;;;;9.03;8.10;;;;;;;-4.77;71.17;95531.75;5139358;27;20233;-63
2022/01/24 00:10:51;;;;;;;9.70;8.67;;;;;;;-4.83;71.11;95539.66;5140184;27;20233;-63
2022/01/24 00:26:56;;;;;;;11.70;9.13;;;;;;;-4.89;72.10;95548.38;5037684;28;20256;-63
2022/01/24 00:29:23;;;;;;;10.83;9.10;;;;;;;-4.88;71.52;95544.06;5053986;28;20233;-63
2022/01/24 00:31:51;;;;;;;11.47;9.17;;;;;;;-4.88;71.86;95542.34;5058203;28;20261;-66
2022/01/24 00:34:17;;;;;;;9.90;8.50;;;;;;;-4.77;71.11;95546.31;5057060;28;20225;-64
2022/01/24 00:36:48;;;;;;;10.03;8.47;;;;;;;-4.82;70.78;95548.19;5040446;28;20221;-63
2022/01/24 00:39:14;;;;;;;11.50;9.17;;;;;;;-4.83;71.20;95551.66;5054950;28;20221;-65
2022/01/24 00:42:14;;;;;;;12.57;9.30;;;;;;;-4.95;71.20;95548.53;5058649;28;20217;-66
2022/01/24 00:47:02;;;;;;;9.40;8.40;;;;;;;-4.68;70.62;95556.28;5058031;28;20242;-63
2022/01/24 00:54:53;;;;;;;10.30;9.20;;;;;;;-4.94;71.09;95559.66;5143216;27;20212;-63
2022/01/24 00:57:20;;;;;;;11.67;9.17;;;;;;;-4.86;70.41;95552.56;5140455;27;20323;-61
2022/01/24 00:59:46;;;;;;;10.37;9.23;;;;;;;-4.83;70.49;95559.34;5141445;27;20222;-63
2022/01/24 01:02:12;;;;;;;11.63;9.93;;;;;;;-4.82;70.32;95556.72;5139111;27;20238;-63
2022/01/24 01:04:59;;;;;;;11.43;8.90;;;;;;;-4.80;70.72;95549.81;5141637;28;20225;-62
2022/01/24 01:18:22;;;;;;;11.47;8.50;;;;;;;-4.69;70.35;95560.59;5146716;27;20270;-63
2022/01/24 01:23:24;;;;;;;11.47;8.93;;;;;;;-4.78;69.70;95548.06;5145020;27;20230;-62
2022/01/24 01:25:51;;;;;;;12.40;9.43;;;;;;;-4.72;69.98;95554.72;5143950;27;20254;-66
2022/01/24 01:28:18;;;;;;;13.73;9.13;;;;;;;-4.78;70.08;95549.78;5145638;27;20359;-65
2022/01/24 01:30:47;;;;;;;12.93;9.03;;;;;;;-4.79;69.93;95542.94;5143632;27;20221;-62
2022/01/24 01:33:26;;;;;;;11.80;9.73;;;;;;;-4.65;69.66;95551.09;5143252;27;20198;-63
2022/01/24 01:36:06;;;;;;;12.27;9.30;;;;;;;-4.75;69.73;95539.41;5144260;27;20222;-62
2022/01/24 01:52:41;;;;;;;13.23;10.27;;;;;;;-5.11;70.58;95544.75;5102630;28;20542;-62
2022/01/24 01:55:26;;;;;;;12.57;10.40;;;;;;;-5.18;70.48;95541.53;5106983;28;20223;-63
2022/01/24 01:57:52;;;;;;;11.70;9.87;;;;;;;-5.25;70.63;95544.31;5088068;28;20216;-62
2022/01/24 02:00:18;;;;;;;12.77;10.17;;;;;;;-5.21;70.83;95543.31;5086443;28;20218;-61
2022/01/24 02:02:43;;;;;;;12.37;10.13;;;;;;;-5.18;70.96;95550.97;5085857;28;20240;-65
2022/01/24 02:05:09;;;;;;;11.47;9.90;;;;;;;-5.22;70.73;95539.94;5090378;28;20215;-64
2022/01/24 02:07:47;;;;;;;11.00;9.53;;;;;;;-5.14;70.78;95542.28;5085167;28;20223;-63
2022/01/24 02:10:13;;;;;;;11.97;10.37;;;;;;;-5.35;70.90;95539.44;5094840;28;20227;-66
2022/01/24 02:12:39;;;;;;;14.10;10.97;;;;;;;-5.28;71.26;95540.13;5090382;28;20218;-64
2022/01/24 02:15:05;;;;;;;12.43;10.37;;;;;;;-5.33;71.67;95549.66;5086132;28;20214;-61
2022/01/24 02:17:45;;;;;;;12.60;10.07;;;;;;;-5.33;71.28;95544.53;5121701;27;20238;-62
2022/01/24 02:25:39;;;;;;;13.43;11.57;;;;;;;-5.16;71.41;95552.59;5140062;27;20221;-62
2022/01/24 02:28:05;;;;;;;11.70;10.50;;;;;;;-5.08;70.90;95560.03;5144871;27;20222;-63
2022/01/24 02:30:50;;;;;;;13.70;11.10;;;;;;;-5.08;71.00;95559.22;5142114;27;20213;-62
2022/01/24 02:33:15;;;;;;;14.30;10.83;;;;;;;-4.96;70.49;95564.00;5143340;27;20205;-66
2022/01/24 02:35:41;;;;;;;13.07;11.00;;;;;;;-5.10;70.73;95557.53;5142541;27;20225;-63
2022/01/24 02:38:18;;;;;;;12.27;11.00;;;;;;;-5.04;70.60;95553.94;5140546;27;20217;-63
2022/01/24 02:45:59;;;;;;;13.53;10.67;;;;;;;-5.12;70.72;95561.88;5141778;27;20238;-64
2022/01/24 02:48:58;;;;;;;12.67;10.73;;;;;;;-5.10;70.91;95579.78;5144725;27;20245;-63
2022/01/24 02:51:57;;;;;;;13.37;10.83;;;;;;;-5.12;71.18;95573.84;5145520;27;20198;-63
2022/01/24 02:54:19;;;;;;;12.37;10.50;;;;;;;-4.96;71.09;95577.66;5141424;27;20222;-66
2022/01/24 02:56:44;;;;;;;13.57;11.60;;;;;;;-5.04;70.75;95577.03;5158904;27;20234;-63
2022/01/24 02:59:10;;;;;;;14.60;11.00;;;;;;;-5.12;70.59;95572.13;5143083;27;20218;-63
2022/01/24 03:01:35;;;;;;;14.40;10.57;;;;;;;-5.11;71.06;95586.59;5141778;27;20219;-63
2022/01/24 03:04:01;;;;;;;13.00;10.87;;;;;;;-4.99;70.70;95584.59;5144306;27;20210;-62
2022/01/24 03:06:26;;;;;;;12.90;10.60;;;;;;;-4.94;70.43;95593.00;5141880;27;20211;-62
2022/01/24 03:08:52;;;;;;;13.73;11.37;;;;;;;-4.96;70.44;95587.91;5141158;27;20320;-62
2022/01/24 03:11:17;;;;;;;13.13;10.83;;;;;;;-4.94;70.31;95591.28;5144833;27;20271;-62
2022/01/24 03:13:43;;;;;;;12.70;10.90;;;;;;;-5.04;70.52;95591.59;5139377;27;20233;-66
2022/01/24 03:16:08;;;;;;;13.27;10.70;;;;;;;-5.05;70.42;95588.19;5144345;27;20221;-66
2022/01/24 03:18:34;;;;;;;12.37;10.90;;;;;;;-5.06;70.63;95586.47;5142829;27;20210;-67
2022/01/24 03:21:01;;;;;;;11.63;9.80;;;;;;;-4.91;70.14;95601.44;5141726;27;20194;-66
2022/01/24 03:23:27;;;;;;;12.47;9.90;;;;;;;-4.92;70.35;95602.34;5145000;27;20271;-64
2022/01/24 03:25:53;;;;;;;12.13;10.10;;;;;;;-4.98;70.27;95604.22;5144996;27;20222;-62
2022/01/24 03:28:19;;;;;;;13.33;10.80;;;;;;;-4.96;70.48;95593.03;5144619;27;20234;-65
2022/01/24 03:30:45;;;;;;;12.10;10.53;;;;;;;-4.93;70.63;95603.19;5143267;27;20214;-62
2022/01/24 03:33:11;;;;;;;13.33;10.90;;;;;;;-5.00;70.25;95608.53;5141942;27;20206;-63
2022/01/24 03:35:40;;;;;;;12.63;10.30;;;;;;;-5.02;70.48;95613.72;5144201;27;20226;-65
2022/01/24 03:38:06;;;;;;;13.57;11.20;;;;;;;-5.00;70.72;95611.09;5144197;27;20230;-62
2022/01/24 03:40:31;;;;;;;15.57;10.57;;;;;;;-4.98;70.63;95619.59;5143748;27;20229;-61
2022/01/24 03:42:57;;;;;;;12.70;10.70;;;;;;;-4.83;70.31;95615.78;5157116;27;20252;-65
2022/01/24 03:45:38;;;;;;;13.13;11.07;;;;;;;-4.89;70.09;95622.75;5143624;27;20207;-64
2022/01/24 03:48:26;;;;;;;12.83;11.17;;;;;;;-4.96;70.86;95623.81;5144342;27;20265;-63
2022/01/24 03:50:52;;;;;;;12.10;10.10;;;;;;;-4.94;70.60;95632.31;5138888;27;20223;-62
2022/01/24 03:53:17;;;;;;;14.27;11.13;;;;;;;-4.97;70.62;95632.41;5141535;27;20225;-64
2022/01/24 03:55:43;;;;;;;12.13;10.67;;;;;;;-4.96;70.75;95638.38;5143027;27;20214;-64
2022/01/24 03:58:09;;;;;;;12.93;10.73;;;;;;;-5.01;71.25;95637.66;5141581;27;20240;-65
2022/01/24 04:00:34;;;;;;;14.53;11.57;;;;;;;-4.93;71.61;95638.28;5140700;27;20203;-63
2022/01/24 04:02:59;;;;;;;17.43;12.27;;;;;;;-5.00;72.03;95652.16;5143638;27;20214;-66
2022/01/24 04:05:25;;;;;;;14.97;11.80;;;;;;;-4.95;71.87;95651.13;5142024;27;20210;-64
2022/01/24 04:07:51;;;;;;;14.27;11.63;;;;;;;-4.91;71.88;95646.78;5142352;27;20285;-62
2022/01/24 04:10:19;;;;;;;16.43;12.37;;;;;;;-4.87;71.92;95649.19;5143046;27;20210;-62
2022/01/24 04:12:45;;;;;;;15.67;12.77;;;;;;;-4.88;72.05;95657.78;5142163;27;20202;-62
2022/01/24 04:18:13;;;;;;;16.17;11.93;;;;;;;-4.82;71.87;95661.06;5143883;27;21093;-62
2022/01/24 04:23:22;;;;;;;13.70;11.40;;;;;;;-4.80;70.50;95664.44;5139451;27;20222;-65
2022/01/24 04:25:48;;;;;;;13.97;11.17;;;;;;;-4.85;69.91;95671.41;5139258;27;20210;-63
2022/01/24 04:28:14;;;;;;;13.77;10.83;;;;;;;-4.85;69.58;95666.28;5140552;27;20230;-61
2022/01/24 04:30:40;;;;;;;15.40;10.80;;;;;;;-4.86;69.78;95670.56;5142036;27;20207;-63
2022/01/24 04:33:05;;;;;;;12.43;9.97;;;;;;;-4.90;69.76;95681.78;5140045;27;20202;-62
2022/01/24 04:35:31;;;;;;;13.33;10.40;;;;;;;-4.98;69.78;95679.44;5142633;27;20222;-65
2022/01/24 04:37:56;;;;;;;14.97;10.73;;;;;;;-5.01;70.34;95681.25;5143244;27;20214;-63
2022/01/24 04:40:24;;;;;;;12.10;9.87;;;;;;;-4.97;70.53;95698.22;5142452;27;20226;-63
2022/01/24 04:42:58;;;;;;;11.93;9.50;;;;;;;-4.93;70.35;95698.09;5140247;27;20235;-64
2022/01/24 04:45:36;;;;;;;10.67;9.23;;;;;;;-5.00;69.99;95690.63;5140022;27;20206;-63
2022/01/24 04:51:08;;;;;;;15.43;12.83;;;;;;;-5.18;70.19;95697.09;5118009;28;20280;-63
2022/01/24 04:56:05;;;;;;;13.20;10.43;;;;;;;-5.32;70.60;95707.69;5119192;28;20231;-62
2022/01/24 04:58:31;;;;;;;12.73;10.57;;;;;;;-5.24;70.58;95703.22;5102719;28;20283;-62
2022/01/24 05:00:56;;;;;;;12.50;10.77;;;;;;;-5.30;70.07;95710.22;5120634;28;20249;-63
2022/01/24 05:03:22;;;;;;;13.13;10.40;;;;;;;-5.31;70.41;95711.94;5105364;28;20222;-64
2022/01/24 05:05:49;;;;;;;12.50;9.97;;;;;;;-5.35;69.65;95715.47;5079534;28;20284;-65
2022/01/24 05:08:15;;;;;;;11.27;9.60;;;;;;;-5.26;69.19;95724.66;5100489;28;20235;-63
2022/01/24 05:10:56;;;;;;;13.47;10.20;;;;;;;-5.29;69.10;95728.13;5092980;28;20280;-66
2022/01/24 05:24:00;;;;;;;10.87;9.57;;;;;;;-5.25;66.97;95754.53;5116455;28;20211;-64
2022/01/24 05:26:25;;;;;;;13.33;11.17;;;;;;;-5.26;67.10;95755.44;5102593;28;20250;-63
2022/01/24 05:28:51;;;;;;;12.60;9.87;;;;;;;-5.15;66.60;95766.25;5136629;27;20234;-63
2022/01/24 05:31:16;;;;;;;12.43;9.70;;;;;;;-5.11;66.39;95760.13;5140276;27;20291;-63
2022/01/24 05:33:42;;;;;;;12.97;10.23;;;;;;;-5.05;66.67;95767.69;5136552;27;20214;-64
2022/01/24 05:36:07;;;;;;;11.67;9.93;;;;;;;-5.11;65.89;95768.66;5141224;27;20206;-64
2022/01/24 05:38:33;;;;;;;11.57;8.73;;;;;;;-5.05;64.02;95777.94;5138959;27;20222;-65
2022/01/24 05:40:58;;;;;;;9.83;7.50;;;;;;;-5.08;63.77;95777.16;5142001;27;20231;-65
2022/01/24 05:43:24;;;;;;;9.63;8.07;;;;;;;-5.02;64.09;95787.28;5140780;27;20229;-64
2022/01/24 05:45:50;;;;;;;9.83;8.53;;;;;;;-5.00;63.29;95785.50;5141110;27;20230;-66
2022/01/24 05:48:15;;;;;;;13.83;8.77;;;;;;;-5.12;63.32;95784.94;5141072;27;20234;-64
2022/01/24 05:50:41;;;;;;;10.77;8.37;;;;;;;-5.11;64.85;95781.47;5142002;27;20222;-63
2022/01/24 05:53:07;;;;;;;13.13;8.27;;;;;;;-5.01;64.62;95786.41;5140421;27;20230;-63
2022/01/24 05:55:33;;;;;;;8.77;7.87;;;;;;;-5.02;64.22;95793.25;5137787;27;20218;-64
2022/01/24 05:57:59;;;;;;;10.80;8.27;;;;;;;-5.01;63.71;95806.91;5139788;27;20233;-63
2022/01/24 06:00:24;;;;;;;12.57;8.77;;;;;;;-5.03;64.65;95801.81;5142318;27;20207;-63
2022/01/24 06:02:50;;;;;;;10.20;7.80;;;;;;;-5.00;62.31;95806.84;5144753;27;20262;-64
2022/01/24 06:05:16;;;;;;;10.77;8.70;;;;;;;-5.04;63.66;95814.69;5143219;27;20222;-64
2022/01/24 06:07:41;;;;;;;10.37;8.10;;;;;;;-4.94;62.41;95824.69;5144662;27;20230;-63
2022/01/24 06:10:07;;;;;;;9.20;7.57;;;;;;;-5.10;63.35;95826.78;5145059;27;20214;-66
2022/01/24 06:12:33;;;;;;;42.10;36.40;;;;;;;-4.96;62.26;95839.25;5144213;27;20218;-67
2022/01/24 06:14:59;;;;;;;13.53;9.70;;;;;;;-4.87;60.92;95839.00;5145380;27;20226;-66
2022/01/24 06:17:25;;;;;;;9.03;7.30;;;;;;;-4.85;60.27;95839.00;5142929;27;20232;-65
2022/01/24 06:19:51;;;;;;;11.47;7.20;;;;;;;-4.80;61.38;95844.00;5147006;27;20206;-65
2022/01/24 06:22:16;;;;;;;9.37;7.03;;;;;;;-4.84;62.58;95834.69;5143517;27;20230;-65
2022/01/24 06:24:42;;;;;;;8.50;6.77;;;;;;;-4.92;62.00;95835.75;5143134;27;20225;-65
2022/01/24 06:27:08;;;;;;;8.23;6.60;;;;;;;-4.85;61.22;95853.53;5143179;27;20290;-66
2022/01/24 06:29:33;;;;;;;8.70;6.90;;;;;;;-4.85;62.23;95853.53;5144021;27;20234;-64
2022/01/24 06:31:59;;;;;;;10.53;7.37;;;;;;;-4.80;62.42;95849.13;5143675;27;20230;-66
2022/01/24 06:34:24;;;;;;;9.83;7.00;;;;;;;-4.72;60.97;95852.34;5143778;27;20226;-64
2022/01/24 06:36:50;;;;;;;8.50;7.00;;;;;;;-4.68;60.58;95857.38;5145016;27;20223;-65
2022/01/24 06:39:15;;;;;;;8.00;6.10;;;;;;;-4.77;59.21;95859.31;5144263;27;20199;-66
2022/01/24 06:41:43;;;;;;;9.50;6.30;;;;;;;-4.83;59.74;95852.63;5143821;27;20235;-66
2022/01/24 06:44:08;;;;;;;10.00;6.47;;;;;;;-4.66;59.65;95867.56;5143591;27;20222;-67
2022/01/24 06:46:34;;;;;;;6.13;5.47;;;;;;;-4.62;58.57;95858.94;5145227;27;20277;-66
2022/01/24 06:49:00;;;;;;;6.80;5.27;;;;;;;-4.47;57.53;95862.81;5144281;27;20291;-65
2022/01/24 06:51:26;;;;;;;7.30;5.20;;;;;;;-4.43;57.31;95864.44;5141949;27;20335;-65
2022/01/24 06:53:51;;;;;;;6.90;5.33;;;;;;;-4.52;57.17;95864.66;5140881;27;20222;-65
2022/01/24 06:56:17;;;;;;;6.97;5.00;;;;;;;-4.39;57.73;95872.88;5143501;27;20316;-64
2022/01/24 06:58:43;;;;;;;6.80;5.40;;;;;;;-4.38;57.73;95859.16;5140437;27;20302;-62
2022/01/24 07:01:09;;;;;;;8.10;5.03;;;;;;;-4.33;56.43;95865.00;5133250;27;20238;-64
2022/01/24 07:03:35;;;;;;;5.70;4.63;;;;;;;-4.40;54.82;95871.19;5132762;27;20211;-62
2022/01/24 07:06:01;;;;;;;5.97;4.97;;;;;;;-4.20;55.37;95871.47;5120589;27;20211;-62
2022/01/24 07:08:26;;;;;;;7.93;6.27;;;;;;;-4.23;56.86;95876.72;5121968;27;20279;-63
2022/01/24 07:10:53;;;;;;;9.37;6.43;;;;;;;-4.18;57.83;95879.16;5133389;27;20237;-63
2022/01/24 07:13:20;;;;;;;8.00;6.37;;;;;;;-4.17;56.53;95884.28;5132822;27;20216;-62
2022/01/24 07:15:50;;;;;;;5.80;5.17;;;;;;;-4.15;57.28;95882.47;5153970;27;20203;-63
2022/01/24 07:21:00;;;;;;;6.70;5.40;;;;;;;-4.02;55.44;95888.13;5123080;27;20305;-62
2022/01/24 07:23:26;;;;;;;8.17;5.47;;;;;;;-3.84;54.31;95886.78;5154785;27;20223;-63
2022/01/24 07:25:51;;;;;;;7.30;5.73;;;;;;;-3.65;54.79;95884.50;5127871;27;20249;-63
2022/01/24 07:28:17;;;;;;;7.70;6.63;;;;;;;-3.55;55.48;95896.22;5121618;28;20235;-62
2022/01/24 07:30:45;;;;;;;5.57;4.93;;;;;;;-3.52;53.91;95890.13;5122742;28;20239;-62
2022/01/24 07:33:11;;;;;;;6.93;4.80;;;;;;;-3.56;53.57;95897.09;5120245;28;20227;-64
2022/01/24 07:35:37;;;;;;;8.07;4.73;;;;;;;-3.61;52.82;95898.94;5120210;28;20224;-63
2022/01/24 07:38:05;;;;;;;6.43;5.13;;;;;;;-3.66;53.86;95904.25;5121755;28;20241;-64
2022/01/24 07:40:31;;;;;;;6.17;5.10;;;;;;;-3.66;55.46;95914.53;5120347;28;20290;-63
2022/01/24 07:43:09;;;;;;;5.87;4.83;;;;;;;-3.67;55.33;95902.53;5121563;27;20227;-63
2022/01/24 07:45:36;;;;;;;5.40;4.67;;;;;;;-3.62;55.19;95920.41;5120312;28;20207;-65
2022/01/24 07:48:02;;;;;;;7.73;5.03;;;;;;;-3.63;53.86;95909.28;5120763;27;20203;-63
2022/01/24 07:50:28;;;;;;;5.97;5.30;;;;;;;-3.76;54.64;95910.53;5128902;27;20236;-63
2022/01/24 07:52:55;;;;;;;8.97;6.20;;;;;;;-3.56;54.73;95915.91;5123049;27;20239;-62
2022/01/24 07:55:21;;;;;;;7.03;5.40;;;;;;;-3.45;53.99;95922.47;5156298;27;20226;-64
2022/01/24 07:57:47;;;;;;;8.77;5.90;;;;;;;-3.56;55.06;95927.94;5141522;27;20211;-62
2022/01/24 08:00:13;;;;;;;8.73;6.53;;;;;;;-3.72;55.21;95936.97;5128840;27;20202;-65
2022/01/24 08:02:40;;;;;;;10.50;6.53;;;;;;;-3.80;55.16;95939.75;5137936;27;20285;-64
2022/01/24 08:05:08;;;;;;;10.67;7.40;;;;;;;-3.67;56.12;95927.41;5140170;27;20222;-63
2022/01/24 08:07:33;;;;;;;11.70;7.40;;;;;;;-3.66;56.77;95944.50;5139242;27;20215;-67
2022/01/24 08:09:59;;;;;;;12.40;7.77;;;;;;;-3.57;55.60;95929.66;5140145;27;20234;-63
2022/01/24 08:12:24;;;;;;;12.47;9.00;;;;;;;-3.56;55.38;95936.47;5143959;27;20199;-64
2022/01/24 08:14:50;;;;;;;14.60;11.23;;;;;;;-3.48;56.06;95935.44;5139871;27;20256;-65
2022/01/24 08:17:16;;;;;;;18.17;12.23;;;;;;;-3.41;56.33;95942.91;5133205;27;20219;-63
2022/01/24 08:19:41;;;;;;;17.03;12.63;;;;;;;-3.48;56.64;95943.97;5141525;27;20286;-65
2022/01/24 08:22:07;;;;;;;13.87;8.70;;;;;;;-3.14;55.62;95954.13;5141861;27;20218;-64
2022/01/24 08:24:32;;;;;;;13.97;10.00;;;;;;;-3.06;55.83;95958.19;5139207;27;20226;-65
2022/01/24 08:26:58;;;;;;;9.77;8.30;;;;;;;-2.96;55.47;95959.59;5141149;27;20199;-65
2022/01/24 08:29:23;;;;;;;9.93;6.87;;;;;;;-2.93;54.98;95962.09;5140456;27;20222;-64
2022/01/24 08:31:49;;;;;;;9.90;7.80;;;;;;;-2.95;55.92;95969.84;5137325;27;20225;-63
2022/01/24 08:34:14;;;;;;;10.47;8.03;;;;;;;-2.71;55.45;95969.97;5140993;27;20247;-62
2022/01/24 08:36:40;;;;;;;13.07;9.03;;;;;;;-2.54;54.66;95974.56;5138109;27;20190;-64
2022/01/24 08:39:08;;;;;;;11.13;7.93;;;;;;;-2.41;55.15;95986.16;5140514;27;20195;-63
2022/01/24 08:41:58;;;;;;;9.27;6.20;;;;;;;-2.52;52.94;95976.22;5141946;27;20231;-65
2022/01/24 08:47:08;;;;;;;8.33;6.33;;;;;;;-2.45;52.20;95984.59;5137705;27;20328;-64
2022/01/24 08:49:34;;;;;;;7.73;6.37;;;;;;;-2.37;50.80;95980.03;5140094;27;20207;-63
2022/01/24 08:52:00;;;;;;;7.63;6.43;;;;;;;-2.22;51.11;95987.25;5140397;27;20259;-62
2022/01/24 08:54:26;;;;;;;9.50;7.07;;;;;;;-2.13;50.89;95990.44;5139523;27;20225;-66
2022/01/24 08:56:52;;;;;;;12.47;9.73;;;;;;;-1.95;50.48;95984.66;5139688;27;20218;-66
2022/01/24 08:59:18;;;;;;;8.33;7.13;;;;;;;-2.27;51.00;95983.16;5136284;27;20218;-67
2022/01/24 09:01:46;;;;;;;8.93;6.67;;;;;;;-2.03;50.55;95984.91;5140054;27;20214;-65
2022/01/24 09:04:12;;;;;;;8.60;6.53;;;;;;;-2.25;50.41;95973.63;5140864;28;20253;-65
2022/01/24 09:06:38;;;;;;;6.93;6.00;;;;;;;-2.12;51.11;95995.50;5135862;27;20269;-67
2022/01/24 09:09:05;;;;;;;9.80;7.17;;;;;;;-2.06;52.13;95994.47;5138391;28;20259;-65
2022/01/24 09:11:34;;;;;;;9.40;7.07;;;;;;;-2.06;49.76;95994.47;5138202;28;20597;-64
2022/01/24 09:14:00;;;;;;;9.10;6.50;;;;;;;-2.20;50.81;95999.25;5139634;27;20297;-63
2022/01/24 09:16:26;;;;;;;8.03;6.63;;;;;;;-2.07;50.82;95985.06;5140572;27;20218;-64
2022/01/24 09:18:52;;;;;;;8.63;6.90;;;;;;;-2.19;51.18;95986.31;5140979;27;20224;-63
2022/01/24 09:21:18;;;;;;;8.63;7.20;;;;;;;-2.02;50.62;95994.31;5138219;28;20226;-65
2022/01/24 09:23:44;;;;;;;10.13;6.90;;;;;;;-1.85;51.01;95993.72;5138003;28;20214;-65
2022/01/24 09:26:09;;;;;;;8.77;6.73;;;;;;;-1.86;49.34;95989.47;5140232;28;20222;-64
2022/01/24 09:28:35;;;;;;;9.20;6.77;;;;;;;-1.81;50.73;95990.16;5154490;27;20237;-64
2022/01/24 09:31:01;;;;;;;8.10;6.73;;;;;;;-1.22;48.31;95978.59;5139843;27;20218;-64
2022/01/24 09:33:27;;;;;;;7.17;5.97;;;;;;;-1.36;47.94;95994.59;5141995;28;20198;-68
2022/01/24 09:35:58;;;;;;;8.67;6.03;;;;;;;-1.28;46.15;95988.28;5143688;27;20218;-63
2022/01/24 09:38:24;;;;;;;11.03;7.00;;;;;;;-1.03;46.17;95990.81;5143377;27;20252;-65
2022/01/24 09:40:50;;;;;;;9.60;7.47;;;;;;;-1.33;46.02;95989.31;5143338;27;20207;-63
2022/01/24 09:43:15;;;;;;;9.47;7.20;;;;;;;-1.13;45.80;95979.97;5141999;27;20229;-63
2022/01/24 09:45:41;;;;;;;9.60;7.43;;;;;;;-1.34;46.28;95994.53;5144326;27;20190;-65
2022/01/24 09:48:08;;;;;;;8.23;6.90;;;;;;;-1.21;46.17;95982.84;5145653;27;20225;-63
2022/01/24 09:50:34;;;;;;;9.87;7.10;;;;;;;-1.21;46.67;95985.44;5144259;27;20238;-64
2022/01/24 09:53:00;;;;;;;9.63;7.83;;;;;;;-1.08;48.28;95983.25;5143129;27;20289;-63
2022/01/24 09:55:26;;;;;;;9.67;7.63;;;;;;;-0.79;46.92;95979.56;5142794;27;20258;-62
2022/01/24 09:57:52;;;;;;;11.30;7.90;;;;;;;-0.70;47.36;95978.34;5144630;27;20222;-64
2022/01/24 10:00:21;;;;;;;8.77;7.07;;;;;;;-0.77;46.93;95982.09;5160798;27;20199;-62
2022/01/24 10:02:49;;;;;;;9.00;6.73;;;;;;;-0.77;45.40;95976.91;5143912;27;20230;-62
2022/01/24 10:05:33;;;;;;;10.90;8.67;;;;;;;-0.96;45.76;95969.03;5142027;27;20234;-64
2022/01/24 10:08:02;;;;;;;11.70;7.67;;;;;;;-1.38;46.04;95980.91;5141166;27;20229;-62
2022/01/24 10:10:39;;;;;;;11.60;7.13;;;;;;;-1.10;46.91;95974.69;5144142;27;20271;-63
2022/01/24 10:16:29;;;;;;;9.73;7.40;;;;;;;-0.62;47.35;95963.38;5143358;27;20279;-63
2022/01/24 10:19:10;;;;;;;9.33;7.27;;;;;;;-0.04;46.13;95966.19;5139944;27;20232;-63
2022/01/24 10:21:38;;;;;;;6.97;5.60;;;;;;;0.13;43.69;95967.22;5142003;27;20210;-65
2022/01/24 10:24:03;;;;;;;6.93;5.63;;;;;;;-0.22;44.22;95977.28;5145499;27;20210;-65
2022/01/24 10:26:29;;;;;;;6.47;5.27;;;;;;;-0.47;45.15;95967.09;5140635;27;20218;-64
2022/01/24 10:28:55;;;;;;;6.80;6.03;;;;;;;-0.53;44.21;95964.78;5142625;27;20250;-65
2022/01/24 10:31:28;;;;;;;9.43;6.77;;;;;;;-0.68;45.03;95973.97;5143298;27;20258;-66
2022/01/24 10:34:34;;;;;;;6.77;5.77;;;;;;;-0.95;46.42;95968.13;5142084;27;20264;-63
2022/01/24 10:36:56;;;;;;;7.57;5.73;;;;;;;-0.74;45.48;95972.47;5141522;27;20399;-64
2022/01/24 10:39:32;;;;;;;6.77;5.37;;;;;;;-0.49;44.54;95976.66;5142883;27;20201;-65
2022/01/24 10:45:09;;;;;;;7.27;5.60;;;;;;;-0.64;42.75;95965.22;5141671;27;20256;-65
2022/01/24 10:47:43;;;;;;;9.10;6.47;;;;;;;-0.18;41.46;95973.69;5138351;27;20221;-65
2022/01/24 10:50:09;;;;;;;8.80;6.50;;;;;;;-0.31;44.80;95975.09;5139906;27;20275;-65
2022/01/24 10:52:34;;;;;;;7.37;6.37;;;;;;;-0.52;44.82;95980.19;5138889;27;20246;-68
2022/01/24 10:55:20;;;;;;;7.87;6.20;;;;;;;-1.05;43.96;95975.38;5136378;27;20259;-65
2022/01/24 10:58:04;;;;;;;7.50;5.93;;;;;;;-1.32;45.48;95982.41;5135834;27;20293;-65
2022/01/24 11:00:31;;;;;;;6.93;6.13;;;;;;;-1.17;46.10;95968.13;5141018;27;20221;-67
2022/01/24 11:03:02;;;;;;;7.53;6.40;;;;;;;-1.21;45.67;95974.28;5135244;27;20210;-65
2022/01/24 11:05:39;;;;;;;7.00;6.30;;;;;;;-1.27;46.33;95983.09;5135961;27;20222;-66
2022/01/24 11:08:11;;;;;;;7.27;5.67;;;;;;;-1.04;46.51;95982.25;5136659;27;20233;-66
2022/01/24 11:10:47;;;;;;;7.90;6.23;;;;;;;-0.88;46.93;95972.16;5142179;27;20230;-64
2022/01/24 11:13:17;;;;;;;8.03;6.77;;;;;;;-0.56;46.94;95976.06;5143500;27;20249;-64
2022/01/24 11:15:48;;;;;;;8.07;6.97;;;;;;;-0.33;46.39;95969.97;5142930;27;20221;-63
2022/01/24 11:18:15;;;;;;;7.57;6.30;;;;;;;-0.24;46.27;95974.78;5142497;27;20198;-64
2022/01/24 11:20:45;;;;;;;8.87;6.83;;;;;;;-0.02;46.15;95966.13;5141957;27;20282;-64
2022/01/24 11:23:12;;;;;;;9.07;7.30;;;;;;;-0.29;44.60;95973.28;5142299;27;20218;-64
2022/01/24 11:25:41;;;;;;;9.40;7.47;;;;;;;-0.22;47.02;95977.28;5138266;27;20241;-64
2022/01/24 11:28:07;;;;;;;10.10;7.37;;;;;;;0.01;45.65;95976.34;5139781;27;20218;-64
2022/01/24 11:30:40;;;;;;;8.47;7.00;;;;;;;-0.13;44.60;95982.09;5141032;27;20301;-64
2022/01/24 11:33:15;;;;;;;8.07;6.90;;;;;;;-0.19;44.86;95974.56;5139824;27;20242;-64
2022/01/24 11:35:51;;;;;;;7.20;6.00;;;;;;;-0.51;44.88;95968.13;5142349;27;20221;-63
2022/01/24 11:38:47;;;;;;;9.83;7.60;;;;;;;-0.09;44.88;95980.22;5141306;27;20242;-62
2022/01/24 11:41:34;;;;;;;8.63;6.93;;;;;;;-0.06;43.76;95978.31;5044299;28;20237;-63
2022/01/24 11:44:10;;;;;;;8.10;6.70;;;;;;;-0.10;44.47;95989.72;5057628;28;20221;-70
2022/01/24 11:46:52;;;;;;;8.17;7.37;;;;;;;0.66;40.93;95974.38;5042818;28;20294;-65
2022/01/24 11:49:36;;;;;;;10.03;7.30;;;;;;;0.93;41.51;95976.66;5059403;28;20296;-61
2022/01/24 11:52:07;;;;;;;9.53;8.53;;;;;;;1.02;39.42;95971.91;5042841;28;20228;-62
2022/01/24 11:55:01;;;;;;;8.50;6.33;;;;;;;0.20;39.03;95971.22;5044362;28;20212;-63
2022/01/24 11:57:50;;;;;;;7.20;6.40;;;;;;;-0.46;42.09;95981.69;5041509;28;20205;-64
2022/01/24 12:00:26;;;;;;;7.20;6.20;;;;;;;-0.58;42.25;95980.47;5057144;28;20209;-63
2022/01/24 12:02:57;;;;;;;6.73;5.53;;;;;;;-0.23;43.34;95976.44;5061072;28;20247;-63
2022/01/24 12:05:40;;;;;;;6.87;5.80;;;;;;;0.12;40.72;95983.66;5060932;28;20212;-67
2022/01/24 12:08:10;;;;;;;6.90;6.20;;;;;;;0.36;40.08;95981.75;5076184;28;20244;-64
2022/01/24 12:10:44;;;;;;;8.43;5.80;;;;;;;0.42;40.34;95981.47;5078776;28;20224;-64
2022/01/24 12:13:17;;;;;;;7.50;6.37;;;;;;;1.18;39.29;95987.56;5063927;28;20226;-66
2022/01/24 12:15:42;;;;;;;8.30;6.50;;;;;;;1.22;38.35;95983.91;5059071;28;20276;-65
2022/01/24 12:18:23;;;;;;;6.30;5.70;;;;;;;1.28;39.81;95975.00;5103990;27;20218;-64
2022/01/24 12:20:54;;;;;;;6.90;5.73;;;;;;;1.55;38.35;95978.03;5133378;27;20225;-65
2022/01/24 12:23:20;;;;;;;6.27;5.63;;;;;;;1.92;38.16;95982.28;5118100;28;20223;-64
2022/01/24 12:25:57;;;;;;;6.80;5.73;;;;;;;0.93;38.21;95981.81;5113512;28;20234;-64
2022/01/24 12:28:29;;;;;;;8.07;6.00;;;;;;;0.20;41.98;95991.91;5134978;27;20225;-63
2022/01/24 12:31:16;;;;;;;7.77;6.67;;;;;;;-0.41;42.67;95984.94;5124636;27;20226;-67
2022/01/24 12:33:51;;;;;;;7.80;6.10;;;;;;;-0.83;42.39;95985.72;5153887;27;20210;-67
2022/01/24 12:36:36;;;;;;;7.20;6.47;;;;;;;-1.05;41.65;95980.53;5122121;28;20190;-63
2022/01/24 12:39:12;;;;;;;7.90;6.53;;;;;;;-1.10;43.44;95995.34;5117243;28;20283;-66
2022/01/24 12:41:43;;;;;;;9.03;6.77;;;;;;;-0.73;42.55;96004.28;5135958;27;20222;-63
2022/01/24 12:46:16;;;;;;;8.23;7.07;;;;;;;-0.73;42.51;96005.13;5136928;27;20215;-64
2022/01/24 12:46:54;;;;;;;9.80;7.50;;;;;;;-0.54;42.14;96001.84;5140627;27;20237;-64
2022/01/24 12:49:20;;;;;;;8.27;6.90;;;;;;;-0.90;42.30;95987.72;5142176;27;20226;-63
2022/01/24 12:51:46;;;;;;;9.07;6.50;;;;;;;-1.02;42.76;96006.22;5138221;27;20199;-66
2022/01/24 12:54:11;;;;;;;8.27;6.23;;;;;;;-0.82;42.71;96009.81;5137103;27;20214;-62
2022/01/24 12:56:37;;;;;;;7.53;6.30;;;;;;;-1.28;42.76;96006.34;5139392;27;20252;-63
2022/01/24 12:59:02;;;;;;;7.13;6.03;;;;;;;-1.12;43.40;96004.91;5137203;27;20222;-62
2022/01/24 13:01:37;;;;;;;8.20;6.40;;;;;;;-1.07;42.49;96002.16;5138195;27;20255;-64
2022/01/24 13:04:10;;;;;;;7.97;7.13;;;;;;;-0.69;42.36;96000.69;5139264;28;20241;-65
2022/01/24 13:06:38;;;;;;;8.23;6.67;;;;;;;-0.70;41.48;96004.16;5139604;27;20199;-66
2022/01/24 13:09:34;;;;;;;9.63;7.67;;;;;;;-0.37;41.85;96011.53;5138797;27;20316;-64